sensor_id;sensor_type;location;lat;lon;timestamp;P1;durP1;ratioP1;P2;durP2;ratioP2
9108;SDS011;4590;51.462;6.692;2024-03-23T05:30:13;8.30;;;2.35;;
9108;SDS011;4590;51.462;6.692;2024-03-23T05:32:39;7.27;;;2.50;;
9108;SDS011;4590;51.462;6.692;2024-03-23T05:35:05;6.38;;;3.08;;
9108;SDS011;4590;51.462;6.692;2024-03-23T05:37:32;8.43;;;3.10;;
9108;SDS011;4590;51.462;6.692;2024-03-23T05:39:59;5.97;;;2.35;;
9108;SDS011;4590;51.462;6.692;2024-03-23T05:42:24;8.23;;;2.83;;
9108;SDS011;4590;51.462;6.692;2024-03-23T05:44:49;8.43;;;2.93;;
9108;SDS011;4590;51.462;6.692;2024-03-23T05:47:15;8.87;;;2.90;;
9108;SDS011;4590;51.462;6.692;2024-03-23T05:49:41;8.45;;;2.67;;
9108;SDS011;4590;51.462;6.692;2024-03-23T05:52:10;5.47;;;2.90;;
9108;SDS011;4590;51.462;6.692;2024-03-23T05:54:36;7.82;;;2.78;;
9108;SDS011;4590;51.462;6.692;2024-03-23T05:57:01;7.63;;;3.27;;
9108;SDS011;4590;51.462;6.692;2024-03-23T05:59:27;8.05;;;3.00;;
9108;SDS011;4590;51.462;6.692;2024-03-23T06:01:53;7.97;;;2.53;;
9108;SDS011;4590;51.462;6.692;2024-03-23T06:04:19;7.97;;;2.88;;
9108;SDS011;4590;51.462;6.692;2024-03-23T06:06:47;6.03;;;3.28;;
9108;SDS011;4590;51.462;6.692;2024-03-23T06:09:13;11.50;;;2.67;;
9108;SDS011;4590;51.462;6.692;2024-03-23T06:11:38;6.67;;;2.90;;
9108;SDS011;4590;51.462;6.692;2024-03-23T06:14:03;7.03;;;2.87;;
9108;SDS011;4590;51.462;6.692;2024-03-23T06:16:28;7.87;;;3.57;;
9108;SDS011;4590;51.462;6.692;2024-03-23T06:18:55;5.93;;;2.95;;
9108;SDS011;4590;51.462;6.692;2024-03-23T06:21:21;8.33;;;3.40;;
9108;SDS011;4590;51.462;6.692;2024-03-23T06:23:50;8.65;;;3.33;;
9108;SDS011;4590;51.462;6.692;2024-03-23T06:26:17;7.03;;;3.10;;
9108;SDS011;4590;51.462;6.692;2024-03-23T06:28:43;9.50;;;3.47;;
9108;SDS011;4590;51.462;6.692;2024-03-23T06:31:09;8.17;;;2.90;;
9108;SDS011;4590;51.462;6.692;2024-03-23T06:33:35;10.40;;;3.63;;
9108;SDS011;4590;51.462;6.692;2024-03-23T06:36:00;6.20;;;3.10;;
9108;SDS011;4590;51.462;6.692;2024-03-23T06:38:25;12.07;;;3.63;;
9108;SDS011;4590;51.462;6.692;2024-03-23T06:40:51;13.20;;;4.33;;
9108;SDS011;4590;51.462;6.692;2024-03-23T06:43:20;11.10;;;3.60;;
9108;SDS011;4590;51.462;6.692;2024-03-23T06:45:52;7.38;;;3.67;;
9108;SDS011;4590;51.462;6.692;2024-03-23T06:48:19;8.25;;;4.05;;
9108;SDS011;4590;51.462;6.692;2024-03-23T06:50:45;11.93;;;4.25;;
9108;SDS011;4590;51.462;6.692;2024-03-23T06:53:11;7.80;;;4.82;;
9108;SDS011;4590;51.462;6.692;2024-03-23T06:55:37;10.60;;;4.45;;
9108;SDS011;4590;51.462;6.692;2024-03-23T06:58:02;7.87;;;4.87;;
9108;SDS011;4590;51.462;6.692;2024-03-23T07:02:54;8.07;;;4.03;;
9108;SDS011;4590;51.462;6.692;2024-03-23T07:05:19;14.00;;;5.50;;
9108;SDS011;4590;51.462;6.692;2024-03-23T07:07:44;10.97;;;5.10;;
9108;SDS011;4590;51.462;6.692;2024-03-23T07:10:09;11.83;;;5.27;;
9108;SDS011;4590;51.462;6.692;2024-03-23T07:12:35;11.37;;;3.90;;
9108;SDS011;4590;51.462;6.692;2024-03-23T07:15:00;11.97;;;4.80;;
9108;SDS011;4590;51.462;6.692;2024-03-23T07:17:25;11.30;;;4.57;;
9108;SDS011;4590;51.462;6.692;2024-03-23T07:19:50;13.83;;;5.30;;
9108;SDS011;4590;51.462;6.692;2024-03-23T07:22:16;10.20;;;5.07;;
9108;SDS011;4590;51.462;6.692;2024-03-23T07:24:41;13.37;;;4.87;;
9108;SDS011;4590;51.462;6.692;2024-03-23T07:27:06;11.57;;;5.53;;
9108;SDS011;4590;51.462;6.692;2024-03-23T07:29:35;8.52;;;4.10;;
9108;SDS011;4590;51.462;6.692;2024-03-23T07:32:01;9.15;;;3.70;;
9108;SDS011;4590;51.462;6.692;2024-03-23T07:34:27;10.83;;;4.87;;
9108;SDS011;4590;51.462;6.692;2024-03-23T07:36:52;11.23;;;4.10;;
9108;SDS011;4590;51.462;6.692;2024-03-23T07:39:17;9.07;;;3.90;;
9108;SDS011;4590;51.462;6.692;2024-03-23T07:41:46;6.63;;;3.50;;
9108;SDS011;4590;51.462;6.692;2024-03-23T07:44:11;9.40;;;3.63;;
9108;SDS011;4590;51.462;6.692;2024-03-23T07:46:36;7.37;;;4.20;;
9108;SDS011;4590;51.462;6.692;2024-03-23T07:49:04;8.50;;;3.37;;
9108;SDS011;4590;51.462;6.692;2024-03-23T07:51:29;12.27;;;3.42;;
9108;SDS011;4590;51.462;6.692;2024-03-23T07:53:55;11.33;;;3.20;;
9108;SDS011;4590;51.462;6.692;2024-03-23T07:56:20;12.17;;;3.33;;
9108;SDS011;4590;51.462;6.692;2024-03-23T07:58:46;8.57;;;3.05;;
9108;SDS011;4590;51.462;6.692;2024-03-23T08:01:13;6.43;;;3.30;;
9108;SDS011;4590;51.462;6.692;2024-03-23T08:03:40;7.25;;;2.72;;
9108;SDS011;4590;51.462;6.692;2024-03-23T08:06:13;4.93;;;2.45;;
9108;SDS011;4590;51.462;6.692;2024-03-23T08:08:44;9.32;;;3.00;;
9108;SDS011;4590;51.462;6.692;2024-03-23T08:11:11;7.93;;;2.83;;
9108;SDS011;4590;51.462;6.692;2024-03-23T08:13:38;7.95;;;2.83;;
9108;SDS011;4590;51.462;6.692;2024-03-23T08:16:05;8.15;;;2.90;;
9108;SDS011;4590;51.462;6.692;2024-03-23T08:18:30;8.27;;;3.00;;
9108;SDS011;4590;51.462;6.692;2024-03-23T08:23:29;8.20;;;2.95;;
9108;SDS011;4590;51.462;6.692;2024-03-23T08:25:57;8.05;;;2.72;;
9108;SDS011;4590;51.462;6.692;2024-03-23T08:28:23;10.32;;;2.88;;
9108;SDS011;4590;51.462;6.692;2024-03-23T08:30:49;6.88;;;2.45;;
9108;SDS011;4590;51.462;6.692;2024-03-23T08:33:15;9.10;;;2.73;;
9108;SDS011;4590;51.462;6.692;2024-03-23T08:38:06;6.80;;;2.58;;
9108;SDS011;4590;51.462;6.692;2024-03-23T08:40:31;3.27;;;1.77;;
9108;SDS011;4590;51.462;6.692;2024-03-23T08:42:58;5.73;;;1.93;;
9108;SDS011;4590;51.462;6.692;2024-03-23T08:45:26;5.00;;;2.13;;
9108;SDS011;4590;51.462;6.692;2024-03-23T08:47:52;5.35;;;1.38;;
9108;SDS011;4590;51.462;6.692;2024-03-23T08:50:17;4.07;;;1.47;;
9108;SDS011;4590;51.462;6.692;2024-03-23T08:52:42;4.17;;;1.70;;
9108;SDS011;4590;51.462;6.692;2024-03-23T08:55:08;6.67;;;1.53;;
9108;SDS011;4590;51.462;6.692;2024-03-23T08:57:34;3.38;;;1.42;;
9108;SDS011;4590;51.462;6.692;2024-03-23T09:00:00;7.23;;;1.60;;
9108;SDS011;4590;51.462;6.692;2024-03-23T09:02:25;6.40;;;1.80;;
9108;SDS011;4590;51.462;6.692;2024-03-23T09:04:50;6.17;;;1.57;;
9108;SDS011;4590;51.462;6.692;2024-03-23T09:07:16;6.33;;;1.87;;
9108;SDS011;4590;51.462;6.692;2024-03-23T09:09:41;4.17;;;1.80;;
9108;SDS011;4590;51.462;6.692;2024-03-23T09:12:06;6.40;;;2.00;;
9108;SDS011;4590;51.462;6.692;2024-03-23T09:14:33;9.73;;;2.33;;
9108;SDS011;4590;51.462;6.692;2024-03-23T09:16:59;4.90;;;2.22;;
9108;SDS011;4590;51.462;6.692;2024-03-23T09:19:26;9.00;;;2.50;;
9108;SDS011;4590;51.462;6.692;2024-03-23T09:21:53;8.60;;;2.97;;
9108;SDS011;4590;51.462;6.692;2024-03-23T09:24:18;7.10;;;2.30;;
9108;SDS011;4590;51.462;6.692;2024-03-23T09:26:43;5.87;;;2.27;;
9108;SDS011;4590;51.462;6.692;2024-03-23T09:29:08;7.03;;;2.80;;
9108;SDS011;4590;51.462;6.692;2024-03-23T09:31:34;4.95;;;2.30;;
9108;SDS011;4590;51.462;6.692;2024-03-23T09:33:59;6.63;;;2.30;;
9108;SDS011;4590;51.462;6.692;2024-03-23T09:36:25;5.20;;;1.90;;
9108;SDS011;4590;51.462;6.692;2024-03-23T09:38:50;6.17;;;2.13;;
9108;SDS011;4590;51.462;6.692;2024-03-23T09:41:15;7.63;;;2.28;;
9108;SDS011;4590;51.462;6.692;2024-03-23T09:43:41;7.00;;;2.00;;
9108;SDS011;4590;51.462;6.692;2024-03-23T09:46:06;10.60;;;2.00;;
9108;SDS011;4590;51.462;6.692;2024-03-23T09:48:32;6.20;;;1.80;;
9108;SDS011;4590;51.462;6.692;2024-03-23T09:50:58;5.88;;;1.85;;
9108;SDS011;4590;51.462;6.692;2024-03-23T09:53:24;3.88;;;1.70;;
9108;SDS011;4590;51.462;6.692;2024-03-23T09:55:50;8.07;;;2.00;;
9108;SDS011;4590;51.462;6.692;2024-03-23T09:58:16;7.47;;;1.67;;
9108;SDS011;4590;51.462;6.692;2024-03-23T10:00:43;5.65;;;1.48;;
9108;SDS011;4590;51.462;6.692;2024-03-23T10:03:09;7.30;;;1.75;;
9108;SDS011;4590;51.462;6.692;2024-03-23T10:05:36;2.72;;;0.95;;
9108;SDS011;4590;51.462;6.692;2024-03-23T10:10:39;5.32;;;1.25;;
9108;SDS011;4590;51.462;6.692;2024-03-23T10:13:04;5.93;;;1.25;;
9108;SDS011;4590;51.462;6.692;2024-03-23T10:15:29;4.53;;;1.50;;
9108;SDS011;4590;51.462;6.692;2024-03-23T10:17:58;3.40;;;1.60;;
9108;SDS011;4590;51.462;6.692;2024-03-23T10:20:41;4.00;;;1.10;;
9108;SDS011;4590;51.462;6.692;2024-03-23T10:23:10;3.10;;;1.10;;
9108;SDS011;4590;51.462;6.692;2024-03-23T10:25:40;6.18;;;1.80;;
9108;SDS011;4590;51.462;6.692;2024-03-23T10:28:06;6.97;;;1.50;;
9108;SDS011;4590;51.462;6.692;2024-03-23T10:30:33;6.22;;;1.35;;
9108;SDS011;4590;51.462;6.692;2024-03-23T10:33:08;3.37;;;1.10;;
9108;SDS011;4590;51.462;6.692;2024-03-23T10:35:34;2.50;;;0.90;;
9108;SDS011;4590;51.462;6.692;2024-03-23T10:40:25;2.30;;;0.70;;
9108;SDS011;4590;51.462;6.692;2024-03-23T10:42:52;2.15;;;0.60;;
9108;SDS011;4590;51.462;6.692;2024-03-23T10:45:22;2.00;;;0.60;;
9108;SDS011;4590;51.462;6.692;2024-03-23T10:47:49;2.00;;;0.50;;
9108;SDS011;4590;51.462;6.692;2024-03-23T10:50:14;2.03;;;0.60;;
9108;SDS011;4590;51.462;6.692;2024-03-23T10:52:39;1.27;;;0.50;;
9108;SDS011;4590;51.462;6.692;2024-03-23T10:55:10;1.33;;;0.60;;
9108;SDS011;4590;51.462;6.692;2024-03-23T10:57:40;1.80;;;0.52;;
9108;SDS011;4590;51.462;6.692;2024-03-23T11:00:09;1.23;;;0.60;;
9108;SDS011;4590;51.462;6.692;2024-03-23T11:02:35;2.17;;;0.80;;
9108;SDS011;4590;51.462;6.692;2024-03-23T11:05:01;2.60;;;0.80;;
9108;SDS011;4590;51.462;6.692;2024-03-23T11:09:51;3.70;;;0.93;;
9108;SDS011;4590;51.462;6.692;2024-03-23T11:14:49;2.22;;;0.98;;
9108;SDS011;4590;51.462;6.692;2024-03-23T11:17:22;3.92;;;1.30;;
9108;SDS011;4590;51.462;6.692;2024-03-23T11:20:07;4.57;;;1.40;;
9108;SDS011;4590;51.462;6.692;2024-03-23T11:22:45;2.60;;;1.05;;
9108;SDS011;4590;51.462;6.692;2024-03-23T11:27:51;3.97;;;1.52;;
9108;SDS011;4590;51.462;6.692;2024-03-23T11:30:25;4.35;;;1.33;;
9108;SDS011;4590;51.462;6.692;2024-03-23T11:32:53;5.93;;;1.50;;
9108;SDS011;4590;51.462;6.692;2024-03-23T11:35:33;4.22;;;1.73;;
9108;SDS011;4590;51.462;6.692;2024-03-23T11:38:09;3.95;;;1.30;;
9108;SDS011;4590;51.462;6.692;2024-03-23T11:40:48;2.58;;;1.20;;
9108;SDS011;4590;51.462;6.692;2024-03-23T11:43:18;3.55;;;1.10;;
9108;SDS011;4590;51.462;6.692;2024-03-23T11:45:47;4.55;;;1.00;;
9108;SDS011;4590;51.462;6.692;2024-03-23T11:48:15;6.93;;;1.10;;
9108;SDS011;4590;51.462;6.692;2024-03-23T11:50:43;2.95;;;0.85;;
9108;SDS011;4590;51.462;6.692;2024-03-23T11:53:11;5.40;;;0.95;;
9108;SDS011;4590;51.462;6.692;2024-03-23T11:55:43;3.72;;;1.08;;
9108;SDS011;4590;51.462;6.692;2024-03-23T11:58:19;3.58;;;0.82;;
9108;SDS011;4590;51.462;6.692;2024-03-23T12:00:49;2.50;;;0.95;;
9108;SDS011;4590;51.462;6.692;2024-03-23T12:03:16;4.25;;;1.30;;
9108;SDS011;4590;51.462;6.692;2024-03-23T12:05:41;2.20;;;0.80;;
9108;SDS011;4590;51.462;6.692;2024-03-23T12:08:23;5.13;;;0.97;;
9108;SDS011;4590;51.462;6.692;2024-03-23T12:10:53;3.70;;;0.90;;
9108;SDS011;4590;51.462;6.692;2024-03-23T12:13:31;2.72;;;1.10;;
9108;SDS011;4590;51.462;6.692;2024-03-23T12:15:57;4.00;;;1.03;;
9108;SDS011;4590;51.462;6.692;2024-03-23T12:18:49;3.83;;;0.77;;
9108;SDS011;4590;51.462;6.692;2024-03-23T12:21:16;1.83;;;0.60;;
9108;SDS011;4590;51.462;6.692;2024-03-23T12:26:09;2.92;;;0.98;;
9108;SDS011;4590;51.462;6.692;2024-03-23T12:28:35;2.10;;;0.70;;
9108;SDS011;4590;51.462;6.692;2024-03-23T12:31:00;4.30;;;1.30;;
9108;SDS011;4590;51.462;6.692;2024-03-23T12:33:26;3.47;;;1.10;;
9108;SDS011;4590;51.462;6.692;2024-03-23T12:35:51;5.50;;;1.37;;
9108;SDS011;4590;51.462;6.692;2024-03-23T12:38:17;5.40;;;1.50;;
9108;SDS011;4590;51.462;6.692;2024-03-23T12:40:46;4.13;;;1.30;;
9108;SDS011;4590;51.462;6.692;2024-03-23T12:43:12;4.03;;;1.25;;
9108;SDS011;4590;51.462;6.692;2024-03-23T12:45:38;3.67;;;0.70;;
9108;SDS011;4590;51.462;6.692;2024-03-23T12:48:03;4.13;;;0.93;;
9108;SDS011;4590;51.462;6.692;2024-03-23T12:50:28;3.17;;;1.10;;
9108;SDS011;4590;51.462;6.692;2024-03-23T12:52:54;3.38;;;1.27;;
9108;SDS011;4590;51.462;6.692;2024-03-23T12:55:19;2.73;;;0.90;;
9108;SDS011;4590;51.462;6.692;2024-03-23T12:57:46;2.33;;;0.80;;
9108;SDS011;4590;51.462;6.692;2024-03-23T13:00:12;6.47;;;1.90;;
9108;SDS011;4590;51.462;6.692;2024-03-23T13:02:40;4.10;;;0.85;;
9108;SDS011;4590;51.462;6.692;2024-03-23T13:07:33;2.00;;;0.60;;
9108;SDS011;4590;51.462;6.692;2024-03-23T13:09:59;2.38;;;0.80;;
9108;SDS011;4590;51.462;6.692;2024-03-23T13:12:25;4.40;;;1.60;;
9108;SDS011;4590;51.462;6.692;2024-03-23T13:17:15;3.47;;;1.20;;
9108;SDS011;4590;51.462;6.692;2024-03-23T13:19:41;4.00;;;1.37;;
9108;SDS011;4590;51.462;6.692;2024-03-23T13:22:06;2.30;;;1.13;;
9108;SDS011;4590;51.462;6.692;2024-03-23T13:24:32;5.03;;;1.27;;
9108;SDS011;4590;51.462;6.692;2024-03-23T13:26:57;3.43;;;1.20;;
9108;SDS011;4590;51.462;6.692;2024-03-23T13:29:23;2.57;;;1.10;;
9108;SDS011;4590;51.462;6.692;2024-03-23T13:31:49;5.15;;;1.13;;
9108;SDS011;4590;51.462;6.692;2024-03-23T13:34:16;2.80;;;0.90;;
9108;SDS011;4590;51.462;6.692;2024-03-23T13:36:43;1.52;;;0.63;;
9108;SDS011;4590;51.462;6.692;2024-03-23T13:39:09;2.00;;;0.68;;
9108;SDS011;4590;51.462;6.692;2024-03-23T13:41:41;2.90;;;1.38;;
9108;SDS011;4590;51.462;6.692;2024-03-23T13:44:08;2.35;;;0.80;;
9108;SDS011;4590;51.462;6.692;2024-03-23T13:46:38;2.50;;;0.50;;
9108;SDS011;4590;51.462;6.692;2024-03-23T13:49:05;3.15;;;1.30;;
9108;SDS011;4590;51.462;6.692;2024-03-23T13:53:56;3.15;;;0.90;;
9108;SDS011;4590;51.462;6.692;2024-03-23T13:56:22;1.87;;;0.80;;
9108;SDS011;4590;51.462;6.692;2024-03-23T13:58:48;1.77;;;0.60;;
9108;SDS011;4590;51.462;6.692;2024-03-23T14:01:14;2.73;;;0.77;;
9108;SDS011;4590;51.462;6.692;2024-03-23T14:03:40;1.23;;;0.60;;
9108;SDS011;4590;51.462;6.692;2024-03-23T14:06:07;3.78;;;1.33;;
9108;SDS011;4590;51.462;6.692;2024-03-23T14:08:33;4.82;;;1.17;;
9108;SDS011;4590;51.462;6.692;2024-03-23T14:11:00;3.00;;;1.02;;
9108;SDS011;4590;51.462;6.692;2024-03-23T14:13:27;3.10;;;1.10;;
9108;SDS011;4590;51.462;6.692;2024-03-23T14:15:55;2.05;;;0.98;;
9108;SDS011;4590;51.462;6.692;2024-03-23T14:18:20;3.20;;;0.90;;
9108;SDS011;4590;51.462;6.692;2024-03-23T14:20:48;3.55;;;0.90;;
9108;SDS011;4590;51.462;6.692;2024-03-23T14:23:13;2.58;;;0.93;;
9108;SDS011;4590;51.462;6.692;2024-03-23T14:25:38;4.30;;;0.90;;
9108;SDS011;4590;51.462;6.692;2024-03-23T14:28:04;2.22;;;0.60;;
9108;SDS011;4590;51.462;6.692;2024-03-23T14:30:29;2.30;;;0.70;;
9108;SDS011;4590;51.462;6.692;2024-03-23T14:32:56;4.47;;;1.48;;
9108;SDS011;4590;51.462;6.692;2024-03-23T14:35:21;2.67;;;0.60;;
9108;SDS011;4590;51.462;6.692;2024-03-23T14:37:47;3.20;;;0.63;;
9108;SDS011;4590;51.462;6.692;2024-03-23T14:40:12;1.53;;;0.60;;
9108;SDS011;4590;51.462;6.692;2024-03-23T14:42:38;1.63;;;0.57;;
9108;SDS011;4590;51.462;6.692;2024-03-23T14:45:03;2.93;;;0.60;;
9108;SDS011;4590;51.462;6.692;2024-03-23T14:47:29;2.08;;;0.63;;
9108;SDS011;4590;51.462;6.692;2024-03-23T14:49:54;1.60;;;0.63;;
9108;SDS011;4590;51.462;6.692;2024-03-23T14:52:19;3.03;;;0.87;;
9108;SDS011;4590;51.462;6.692;2024-03-23T14:54:45;4.80;;;0.80;;
9108;SDS011;4590;51.462;6.692;2024-03-23T14:57:11;1.63;;;0.63;;
9108;SDS011;4590;51.462;6.692;2024-03-23T14:59:37;3.80;;;1.20;;
9108;SDS011;4590;51.462;6.692;2024-03-23T15:02:06;3.03;;;1.10;;
9108;SDS011;4590;51.462;6.692;2024-03-23T15:06:57;2.40;;;0.77;;
9108;SDS011;4590;51.462;6.692;2024-03-23T15:11:48;6.37;;;1.33;;
9108;SDS011;4590;51.462;6.692;2024-03-23T15:14:15;2.83;;;1.00;;
9108;SDS011;4590;51.462;6.692;2024-03-23T15:16:40;5.25;;;3.00;;
9108;SDS011;4590;51.462;6.692;2024-03-23T15:19:07;5.22;;;1.70;;
9108;SDS011;4590;51.462;6.692;2024-03-23T15:21:35;2.75;;;1.45;;
9108;SDS011;4590;51.462;6.692;2024-03-23T15:24:01;2.90;;;0.90;;
9108;SDS011;4590;51.462;6.692;2024-03-23T15:26:26;3.07;;;0.90;;
9108;SDS011;4590;51.462;6.692;2024-03-23T15:28:51;2.20;;;1.10;;
9108;SDS011;4590;51.462;6.692;2024-03-23T15:31:22;2.47;;;1.05;;
9108;SDS011;4590;51.462;6.692;2024-03-23T15:33:48;2.75;;;1.00;;
9108;SDS011;4590;51.462;6.692;2024-03-23T15:36:14;2.05;;;0.95;;
9108;SDS011;4590;51.462;6.692;2024-03-23T15:38:40;4.73;;;1.30;;
9108;SDS011;4590;51.462;6.692;2024-03-23T15:43:32;5.60;;;1.50;;
9108;SDS011;4590;51.462;6.692;2024-03-23T15:46:00;3.60;;;1.00;;
9108;SDS011;4590;51.462;6.692;2024-03-23T15:48:30;2.80;;;1.05;;
9108;SDS011;4590;51.462;6.692;2024-03-23T15:51:02;5.82;;;2.30;;
9108;SDS011;4590;51.462;6.692;2024-03-23T15:53:31;3.92;;;1.50;;
9108;SDS011;4590;51.462;6.692;2024-03-23T15:55:57;5.22;;;1.40;;
9108;SDS011;4590;51.462;6.692;2024-03-23T15:58:26;6.50;;;3.35;;
9108;SDS011;4590;51.462;6.692;2024-03-23T16:00:56;5.60;;;2.70;;
9108;SDS011;4590;51.462;6.692;2024-03-23T16:03:25;8.55;;;1.92;;
9108;SDS011;4590;51.462;6.692;2024-03-23T16:05:55;3.50;;;1.65;;
9108;SDS011;4590;51.462;6.692;2024-03-23T16:08:22;5.10;;;1.45;;
9108;SDS011;4590;51.462;6.692;2024-03-23T16:10:48;5.53;;;1.95;;
9108;SDS011;4590;51.462;6.692;2024-03-23T16:13:13;3.88;;;1.67;;
9108;SDS011;4590;51.462;6.692;2024-03-23T16:15:39;2.70;;;1.53;;
9108;SDS011;4590;51.462;6.692;2024-03-23T16:18:04;4.63;;;2.67;;
9108;SDS011;4590;51.462;6.692;2024-03-23T16:20:30;5.95;;;2.80;;
9108;SDS011;4590;51.462;6.692;2024-03-23T16:22:58;5.78;;;2.25;;
9108;SDS011;4590;51.462;6.692;2024-03-23T16:25:23;5.60;;;2.00;;
9108;SDS011;4590;51.462;6.692;2024-03-23T16:27:49;4.07;;;1.43;;
9108;SDS011;4590;51.462;6.692;2024-03-23T16:30:14;10.50;;;1.57;;
9108;SDS011;4590;51.462;6.692;2024-03-23T16:35:07;3.28;;;1.27;;
9108;SDS011;4590;51.462;6.692;2024-03-23T16:37:35;1.95;;;1.02;;
9108;SDS011;4590;51.462;6.692;2024-03-23T16:40:00;2.05;;;1.25;;
9108;SDS011;4590;51.462;6.692;2024-03-23T16:42:27;3.63;;;1.23;;
9108;SDS011;4590;51.462;6.692;2024-03-23T16:44:53;2.55;;;0.80;;
9108;SDS011;4590;51.462;6.692;2024-03-23T16:47:18;2.00;;;0.90;;
9108;SDS011;4590;51.462;6.692;2024-03-23T16:52:10;2.10;;;0.60;;
9108;SDS011;4590;51.462;6.692;2024-03-23T16:54:35;1.83;;;0.80;;
9108;SDS011;4590;51.462;6.692;2024-03-23T16:57:02;2.47;;;0.90;;
9108;SDS011;4590;51.462;6.692;2024-03-23T16:59:28;3.65;;;0.90;;
9108;SDS011;4590;51.462;6.692;2024-03-23T17:01:53;3.03;;;0.83;;
9108;SDS011;4590;51.462;6.692;2024-03-23T17:04:20;3.60;;;1.03;;
9108;SDS011;4590;51.462;6.692;2024-03-23T17:06:47;1.85;;;0.75;;
9108;SDS011;4590;51.462;6.692;2024-03-23T17:09:12;1.40;;;0.60;;
9108;SDS011;4590;51.462;6.692;2024-03-23T17:11:38;4.57;;;0.70;;
9108;SDS011;4590;51.462;6.692;2024-03-23T17:14:03;2.27;;;0.80;;
9108;SDS011;4590;51.462;6.692;2024-03-23T17:16:29;2.20;;;1.17;;
9108;SDS011;4590;51.462;6.692;2024-03-23T17:18:57;4.70;;;1.50;;
9108;SDS011;4590;51.462;6.692;2024-03-23T17:21:23;4.07;;;1.00;;
9108;SDS011;4590;51.462;6.692;2024-03-23T17:23:48;2.63;;;1.00;;
9108;SDS011;4590;51.462;6.692;2024-03-23T17:28:40;3.28;;;0.90;;
9108;SDS011;4590;51.462;6.692;2024-03-23T17:31:05;3.40;;;1.40;;
9108;SDS011;4590;51.462;6.692;2024-03-23T17:33:31;2.83;;;0.90;;
9108;SDS011;4590;51.462;6.692;2024-03-23T17:35:56;1.97;;;0.90;;
9108;SDS011;4590;51.462;6.692;2024-03-23T17:38:21;3.47;;;0.87;;
9108;SDS011;4590;51.462;6.692;2024-03-23T17:40:47;1.95;;;0.73;;
9108;SDS011;4590;51.462;6.692;2024-03-23T17:43:12;1.80;;;0.80;;
9108;SDS011;4590;51.462;6.692;2024-03-23T17:45:38;1.20;;;0.57;;
9108;SDS011;4590;51.462;6.692;2024-03-23T17:50:30;2.67;;;1.23;;
9108;SDS011;4590;51.462;6.692;2024-03-23T17:52:56;5.00;;;2.55;;
9108;SDS011;4590;51.462;6.692;2024-03-23T17:55:21;3.57;;;1.87;;
9108;SDS011;4590;51.462;6.692;2024-03-23T17:57:46;3.23;;;1.90;;
9108;SDS011;4590;51.462;6.692;2024-03-23T18:00:12;4.25;;;1.58;;
9108;SDS011;4590;51.462;6.692;2024-03-23T18:02:40;2.40;;;1.30;;
9108;SDS011;4590;51.462;6.692;2024-03-23T18:05:06;2.97;;;1.52;;
9108;SDS011;4590;51.462;6.692;2024-03-23T18:07:31;2.90;;;1.20;;
9108;SDS011;4590;51.462;6.692;2024-03-23T18:09:58;3.78;;;1.65;;
9108;SDS011;4590;51.462;6.692;2024-03-23T18:12:23;1.90;;;1.10;;
9108;SDS011;4590;51.462;6.692;2024-03-23T18:14:49;3.20;;;1.40;;
9108;SDS011;4590;51.462;6.692;2024-03-23T18:17:15;2.08;;;1.08;;
9108;SDS011;4590;51.462;6.692;2024-03-23T18:19:40;2.30;;;1.37;;
9108;SDS011;4590;51.462;6.692;2024-03-23T18:22:07;4.20;;;1.40;;
9108;SDS011;4590;51.462;6.692;2024-03-23T18:24:34;2.33;;;1.55;;
9108;SDS011;4590;51.462;6.692;2024-03-23T18:27:00;2.95;;;1.70;;
9108;SDS011;4590;51.462;6.692;2024-03-23T18:29:25;2.35;;;1.60;;
9108;SDS011;4590;51.462;6.692;2024-03-23T18:31:51;3.53;;;1.63;;
9108;SDS011;4590;51.462;6.692;2024-03-23T18:34:16;2.90;;;1.53;;
9108;SDS011;4590;51.462;6.692;2024-03-23T18:36:42;3.95;;;2.08;;
9108;SDS011;4590;51.462;6.692;2024-03-23T18:39:07;5.13;;;1.90;;
9108;SDS011;4590;51.462;6.692;2024-03-23T18:41:32;3.57;;;2.00;;
9108;SDS011;4590;51.462;6.692;2024-03-23T18:43:59;4.00;;;2.10;;
9108;SDS011;4590;51.462;6.692;2024-03-23T18:46:25;4.53;;;2.60;;
9108;SDS011;4590;51.462;6.692;2024-03-23T18:48:51;4.00;;;2.38;;
9108;SDS011;4590;51.462;6.692;2024-03-23T18:51:16;3.60;;;2.03;;
9108;SDS011;4590;51.462;6.692;2024-03-23T18:53:42;3.90;;;2.00;;
9108;SDS011;4590;51.462;6.692;2024-03-23T18:56:07;4.13;;;1.93;;
9108;SDS011;4590;51.462;6.692;2024-03-23T18:58:32;3.73;;;1.70;;
9108;SDS011;4590;51.462;6.692;2024-03-23T19:01:01;3.43;;;1.80;;
9108;SDS011;4590;51.462;6.692;2024-03-23T19:03:28;3.00;;;1.70;;
9108;SDS011;4590;51.462;6.692;2024-03-23T19:05:54;3.40;;;1.88;;
9108;SDS011;4590;51.462;6.692;2024-03-23T19:08:21;2.55;;;1.20;;
9108;SDS011;4590;51.462;6.692;2024-03-23T19:10:56;2.78;;;1.35;;
9108;SDS011;4590;51.462;6.692;2024-03-23T19:13:23;2.97;;;1.63;;
9108;SDS011;4590;51.462;6.692;2024-03-23T19:15:50;2.72;;;1.30;;
9108;SDS011;4590;51.462;6.692;2024-03-23T19:18:16;2.85;;;1.30;;
9108;SDS011;4590;51.462;6.692;2024-03-23T19:20:42;3.88;;;1.63;;
9108;SDS011;4590;51.462;6.692;2024-03-23T19:23:08;3.20;;;1.50;;
9108;SDS011;4590;51.462;6.692;2024-03-23T19:25:34;2.23;;;1.30;;
9108;SDS011;4590;51.462;6.692;2024-03-23T19:28:00;2.60;;;1.15;;
9108;SDS011;4590;51.462;6.692;2024-03-23T19:30:29;10.65;;;1.30;;
9108;SDS011;4590;51.462;6.692;2024-03-23T19:32:55;2.83;;;1.30;;
9108;SDS011;4590;51.462;6.692;2024-03-23T19:35:24;2.90;;;1.20;;
9108;SDS011;4590;51.462;6.692;2024-03-23T19:37:53;2.80;;;1.42;;
9108;SDS011;4590;51.462;6.692;2024-03-23T19:40:18;2.53;;;1.50;;
9108;SDS011;4590;51.462;6.692;2024-03-23T19:42:44;3.20;;;1.52;;
9108;SDS011;4590;51.462;6.692;2024-03-23T19:45:09;3.50;;;1.87;;
9108;SDS011;4590;51.462;6.692;2024-03-23T19:47:38;3.75;;;1.98;;
9108;SDS011;4590;51.462;6.692;2024-03-23T19:50:05;3.30;;;1.50;;
9108;SDS011;4590;51.462;6.692;2024-03-23T19:52:33;2.63;;;1.42;;
9108;SDS011;4590;51.462;6.692;2024-03-23T19:54:58;3.90;;;1.47;;
9108;SDS011;4590;51.462;6.692;2024-03-23T19:57:23;4.57;;;1.80;;
9108;SDS011;4590;51.462;6.692;2024-03-23T19:59:49;2.33;;;1.33;;
9108;SDS011;4590;51.462;6.692;2024-03-23T20:02:14;4.07;;;1.80;;
9108;SDS011;4590;51.462;6.692;2024-03-23T20:04:40;3.03;;;1.50;;
9108;SDS011;4590;51.462;6.692;2024-03-23T20:07:05;5.28;;;2.13;;
9108;SDS011;4590;51.462;6.692;2024-03-23T20:09:31;5.57;;;2.03;;
9108;SDS011;4590;51.462;6.692;2024-03-23T20:11:56;3.73;;;1.43;;
9108;SDS011;4590;51.462;6.692;2024-03-23T20:14:24;2.50;;;1.37;;
9108;SDS011;4590;51.462;6.692;2024-03-23T20:16:49;3.15;;;1.50;;
9108;SDS011;4590;51.462;6.692;2024-03-23T20:19:14;3.57;;;2.07;;
9108;SDS011;4590;51.462;6.692;2024-03-23T20:21:40;5.17;;;2.10;;
9108;SDS011;4590;51.462;6.692;2024-03-23T20:24:05;3.40;;;1.50;;
9108;SDS011;4590;51.462;6.692;2024-03-23T20:26:31;4.65;;;1.90;;
9108;SDS011;4590;51.462;6.692;2024-03-23T20:28:56;5.30;;;2.17;;
9108;SDS011;4590;51.462;6.692;2024-03-23T20:31:21;4.20;;;2.13;;
9108;SDS011;4590;51.462;6.692;2024-03-23T20:33:46;3.83;;;1.87;;
9108;SDS011;4590;51.462;6.692;2024-03-23T20:36:13;3.13;;;1.60;;
9108;SDS011;4590;51.462;6.692;2024-03-23T20:38:39;2.75;;;1.45;;
9108;SDS011;4590;51.462;6.692;2024-03-23T20:41:04;3.70;;;1.50;;
9108;SDS011;4590;51.462;6.692;2024-03-23T20:43:30;3.30;;;1.80;;
9108;SDS011;4590;51.462;6.692;2024-03-23T20:48:27;4.50;;;1.65;;
9108;SDS011;4590;51.462;6.692;2024-03-23T20:51:00;3.35;;;1.45;;
9108;SDS011;4590;51.462;6.692;2024-03-23T20:53:27;6.32;;;1.88;;
9108;SDS011;4590;51.462;6.692;2024-03-23T20:55:57;3.33;;;1.87;;
9108;SDS011;4590;51.462;6.692;2024-03-23T20:58:24;4.03;;;2.00;;
9108;SDS011;4590;51.462;6.692;2024-03-23T21:03:16;3.13;;;1.73;;
9108;SDS011;4590;51.462;6.692;2024-03-23T21:05:43;5.38;;;2.30;;
9108;SDS011;4590;51.462;6.692;2024-03-23T21:08:10;3.33;;;2.20;;
9108;SDS011;4590;51.462;6.692;2024-03-23T21:10:36;4.68;;;2.50;;
9108;SDS011;4590;51.462;6.692;2024-03-23T21:13:02;2.70;;;1.75;;
9108;SDS011;4590;51.462;6.692;2024-03-23T21:15:29;3.63;;;1.83;;
9108;SDS011;4590;51.462;6.692;2024-03-23T21:17:54;4.00;;;1.70;;
9108;SDS011;4590;51.462;6.692;2024-03-23T21:20:19;5.63;;;2.10;;
9108;SDS011;4590;51.462;6.692;2024-03-23T21:22:49;4.15;;;2.10;;
9108;SDS011;4590;51.462;6.692;2024-03-23T21:25:15;4.35;;;2.13;;
9108;SDS011;4590;51.462;6.692;2024-03-23T21:27:40;4.50;;;2.20;;
9108;SDS011;4590;51.462;6.692;2024-03-23T21:30:06;4.13;;;2.10;;
9108;SDS011;4590;51.462;6.692;2024-03-23T21:32:32;4.32;;;2.20;;